Time;durP1;ratioP1;P1;durP2;ratioP2;P2;SDS_P1;SDS_P2;PMS_P1;PMS_P2;Temp;Humidity;BMP_temperature;BMP_pressure;BME280_temperature;BME280_humidity;BME280_pressure;Samples;Min_cycle;Max_cycle;Signal;HPM_P1;HPM_P2
2021/10/01 00:01:14;486918.00;1.62;839.30;0.00;0.00;0.62;;;;;11.60;1.00;;;;;;2279352;61;1117;-87
2021/10/01 00:03:41;286783.00;0.96;495.20;0.00;0.00;0.62;;;;;11.70;1.00;;;;;;2279241;61;1273;-87
2021/10/01 00:06:08;432301.00;1.44;745.34;0.00;0.00;0.62;;;;;11.40;1.00;;;;;;2279150;61;1155;-86
2021/10/01 00:08:36;391409.00;1.30;675.04;0.00;0.00;0.62;;;;;11.50;1.00;;;;;;2279203;61;1160;-86
2021/10/01 00:11:03;483270.00;1.61;833.03;0.00;0.00;0.62;;;;;11.10;1.00;;;;;;2279229;61;1105;-86
2021/10/01 00:13:30;371248.00;1.24;640.38;0.00;0.00;0.62;;;;;11.20;1.00;;;;;;2278969;61;1505;-87
2021/10/01 00:15:57;418554.00;1.40;721.70;0.00;0.00;0.62;;;;;11.40;1.00;;;;;;2278874;61;1091;-86
2021/10/01 00:18:24;391403.00;1.30;675.03;0.00;0.00;0.62;;;;;11.20;1.00;;;;;;2278720;61;1919;-86
2021/10/01 00:20:51;470868.00;1.57;811.68;30341.00;0.10;53.17;;;;;11.20;1.00;;;;;;2279074;61;1075;-86
2021/10/01 00:23:18;336704.00;1.12;581.01;0.00;0.00;0.62;;;;;11.20;1.00;;;;;;2278963;61;1343;-87
2021/10/01 00:25:46;569398.00;1.90;981.41;10378.00;0.03;18.60;;;;;11.10;1.00;;;;;;2279163;61;1152;-86
2021/10/01 00:28:13;406884.00;1.36;701.64;0.00;0.00;0.62;;;;;11.10;1.00;;;;;;2279550;61;1140;-86
2021/10/01 00:30:40;253166.00;0.84;437.40;0.00;0.00;0.62;;;;;11.20;1.00;;;;;;2279257;61;1137;-87
2021/10/01 00:33:07;467111.00;1.56;805.22;0.00;0.00;0.62;;;;;11.20;1.00;;;;;;2278999;61;1419;-86
2021/10/01 00:35:34;388493.00;1.29;670.02;0.00;0.00;0.62;;;;;11.00;1.00;;;;;;2279172;61;1147;-87
2021/10/01 00:38:01;752782.00;2.51;1298.90;19644.00;0.07;34.65;;;;;10.90;1.00;;;;;;2279130;61;1119;-86
2021/10/01 00:40:28;719517.00;2.40;1241.10;0.00;0.00;0.62;;;;;10.90;1.00;;;;;;2279246;61;1931;-87
2021/10/01 00:42:57;117886376.00;392.95;66362724.00;0.00;0.00;0.62;;;;;10.90;1.00;;;;;;2279429;61;1270;-87
2021/10/01 00:45:24;661478.00;2.20;1140.50;0.00;0.00;0.62;;;;;10.90;1.00;;;;;;2279595;61;1112;-87
2021/10/01 00:47:51;622569.00;2.08;1073.21;0.00;0.00;0.62;;;;;10.60;1.00;;;;;;2279229;61;1133;-86
2021/10/01 00:50:18;617451.00;2.06;1064.36;3831.00;0.01;7.26;;;;;10.80;1.00;;;;;;2279323;61;1078;-87
2021/10/01 00:52:47;660444.00;2.20;1138.71;36404.00;0.12;63.67;;;;;10.80;1.00;;;;;;2279121;61;1376;-87
2021/10/01 00:55:14;729426.00;2.43;1258.31;0.00;0.00;0.62;;;;;10.80;1.00;;;;;;2279009;61;1113;-86
2021/10/01 00:57:41;597131.00;1.99;1029.27;0.00;0.00;0.62;;;;;10.70;1.00;;;;;;2278439;61;1089;-86
2021/10/01 01:00:21;779540.00;2.60;1345.46;0.00;0.00;0.62;;;;;10.90;1.00;;;;;;2279194;61;1998;-87
2021/10/01 01:02:49;483110.00;1.61;832.75;0.00;0.00;0.62;;;;;10.80;1.00;;;;;;2279194;61;1465;-86
2021/10/01 01:05:17;564572.00;1.88;973.08;0.00;0.00;0.62;;;;;10.90;1.00;;;;;;2279025;61;1078;-87
2021/10/01 01:07:53;583506.00;1.95;1005.75;0.00;0.00;0.62;;;;;11.00;1.00;;;;;;2279228;61;1581;-86
2021/10/01 01:10:28;582088.00;1.94;1003.30;0.00;0.00;0.62;;;;;11.00;1.00;;;;;;2279320;61;1147;-86
2021/10/01 01:13:02;550932.00;1.84;949.57;0.00;0.00;0.62;;;;;11.00;1.00;;;;;;2279342;61;1489;-86
2021/10/01 01:15:32;486896.00;1.62;839.27;0.00;0.00;0.62;;;;;11.00;1.00;;;;;;2279346;61;1129;-86
2021/10/01 01:18:04;823556.00;2.75;1422.24;0.00;0.00;0.62;;;;;10.70;1.00;;;;;;2279242;61;1069;-86
2021/10/01 01:20:36;542794.00;1.81;935.54;0.00;0.00;0.62;;;;;10.60;1.00;;;;;;2279245;61;1903;-86
2021/10/01 01:23:19;602362.00;2.01;1038.30;0.00;0.00;0.62;;;;;10.50;1.00;;;;;;2279251;61;1408;-86
2021/10/01 01:25:57;1003243.00;3.34;1738.22;49105.00;0.16;85.64;;;;;10.60;1.00;;;;;;2279357;61;1094;-86
2021/10/01 01:28:49;666741.00;2.22;1149.61;0.00;0.00;0.62;;;;;10.80;1.00;;;;;;2279508;60;1065;-86
2021/10/01 01:31:25;574827.00;1.92;990.77;0.00;0.00;0.62;;;;;10.60;1.00;;;;;;2279989;60;1063;-87
2021/10/01 01:34:00;552111.00;1.84;951.60;0.00;0.00;0.62;;;;;10.60;1.00;;;;;;2279253;61;1381;-86
2021/10/01 01:36:27;594438.00;1.98;1024.62;0.00;0.00;0.62;;;;;10.50;1.00;;;;;;2279894;61;1140;-87
2021/10/01 01:38:57;586308.00;1.95;1010.58;0.00;0.00;0.62;;;;;10.30;1.00;;;;;;2279894;61;1923;-87
2021/10/01 01:41:27;615962.00;2.05;1061.79;0.00;0.00;0.62;;;;;10.40;1.00;;;;;;2280170;61;1121;-87
2021/10/01 01:43:57;588027.00;1.96;1013.55;0.00;0.00;0.62;;;;;10.50;1.00;;;;;;2279652;61;1295;-87
2021/10/01 01:46:25;479443.00;1.60;826.44;0.00;0.00;0.62;;;;;10.50;1.00;;;;;;2279954;61;1129;-86
2021/10/01 01:48:55;635156.00;2.12;1094.96;0.00;0.00;0.62;;;;;10.50;1.00;;;;;;2279881;61;1051;-87
2021/10/01 01:51:23;530292.00;1.77;913.99;0.00;0.00;0.62;;;;;10.30;1.00;;;;;;2279805;61;1094;-86
2021/10/01 01:53:53;710680.00;2.37;1225.76;0.00;0.00;0.62;;;;;10.10;1.00;;;;;;2280134;61;1301;-87
2021/10/01 01:56:21;828470.00;2.76;1430.82;28255.00;0.09;49.56;;;;;10.20;1.00;;;;;;2280072;61;1085;-86
2021/10/01 01:58:50;700422.00;2.33;1207.97;0.00;0.00;0.62;;;;;10.00;1.00;;;;;;2280021;61;1121;-87
2021/10/01 02:01:19;576276.00;1.92;993.27;0.00;0.00;0.62;;;;;9.80;1.00;;;;;;2279903;61;1149;-87
2021/10/01 02:03:47;575174.00;1.92;991.37;0.00;0.00;0.62;;;;;9.70;1.00;;;;;;2280103;61;1300;-87
2021/10/01 02:06:18;490471.00;1.63;845.42;0.00;0.00;0.62;;;;;9.70;1.00;;;;;;2280102;61;1102;-86
2021/10/01 02:08:46;620052.00;2.07;1068.86;24487.00;0.08;43.04;;;;;9.90;1.00;;;;;;2280753;60;1123;-87
2021/10/01 02:11:16;597134.00;1.99;1029.27;0.00;0.00;0.62;;;;;10.00;1.00;;;;;;2280409;60;1097;-88
2021/10/01 02:13:45;468068.00;1.56;806.87;0.00;0.00;0.62;;;;;10.30;1.00;;;;;;2280083;61;1331;-87
2021/10/01 02:16:14;736389.00;2.45;1270.40;15023.00;0.05;26.65;;;;;10.30;1.00;;;;;;2280273;61;1021;-86
2021/10/01 02:18:45;585408.00;1.95;1009.03;35360.00;0.12;61.86;;;;;10.20;1.00;;;;;;2280000;61;965;-87
2021/10/01 02:21:16;515056.00;1.72;887.75;0.00;0.00;0.62;;;;;10.30;1.00;;;;;;2280142;60;2010;-87
2021/10/01 02:23:43;766760.00;2.56;1323.21;0.00;0.00;0.62;;;;;10.10;1.00;;;;;;2275568;61;1426;-86
2021/10/01 02:26:36;729644.00;2.43;1258.68;0.00;0.00;0.62;;;;;9.90;1.00;;;;;;2275886;61;1004;-87
2021/10/01 02:29:09;992815.00;3.31;1719.75;37492.00;0.12;65.55;;;;;9.90;1.00;;;;;;2275878;61;1109;-87
2021/10/01 02:31:49;665530.00;2.22;1147.51;0.00;0.00;0.62;;;;;9.90;1.00;;;;;;2275876;61;1081;-86
2021/10/01 02:34:21;792255.00;2.64;1367.62;0.00;0.00;0.62;;;;;9.80;1.00;;;;;;2275315;61;1648;-87
2021/10/01 02:36:49;935465.00;3.12;1618.50;0.00;0.00;0.62;;;;;9.90;1.00;;;;;;2275547;61;995;-87
2021/10/01 02:39:16;722784.00;2.41;1246.77;0.00;0.00;0.62;;;;;9.90;1.00;;;;;;2274769;61;2008;-87
2021/10/01 02:41:43;811469.00;2.70;1401.13;0.00;0.00;0.62;;;;;9.90;1.00;;;;;;2277680;61;1114;-86
2021/10/01 02:44:11;714972.00;2.38;1233.21;23536.00;0.08;41.39;;;;;9.60;1.00;;;;;;2280136;61;1410;-87
2021/10/01 02:46:38;709555.00;2.37;1223.81;0.00;0.00;0.62;;;;;9.50;1.00;;;;;;2280275;60;1062;-87
2021/10/01 02:49:05;751737.00;2.51;1297.08;18276.00;0.06;32.28;;;;;9.40;1.00;;;;;;2280135;60;1038;-87
2021/10/01 02:51:37;529172.00;1.76;912.07;0.00;0.00;0.62;;;;;9.30;1.40;;;;;;2280084;60;1175;-87
2021/10/01 02:54:09;558324.00;1.86;962.31;0.00;0.00;0.62;;;;;9.50;1.20;;;;;;2280177;61;1380;-87
2021/10/01 02:56:41;500953.00;1.67;863.46;0.00;0.00;0.62;;;;;9.50;1.00;;;;;;2280086;60;1151;-87
2021/10/01 02:59:11;452136.00;1.51;779.46;0.00;0.00;0.62;;;;;9.60;1.10;;;;;;2279899;61;1129;-87
2021/10/01 03:01:41;411980.00;1.37;710.40;0.00;0.00;0.62;;;;;9.30;1.00;;;;;;2279939;61;1588;-87
2021/10/01 03:04:11;404715.00;1.35;697.91;0.00;0.00;0.62;;;;;9.30;1.00;;;;;;2280014;61;1308;-87
2021/10/01 03:06:44;723331.00;2.41;1247.72;0.00;0.00;0.62;;;;;9.30;1.40;;;;;;2279732;61;1749;-87
2021/10/01 03:09:16;806337.00;2.69;1392.18;23947.00;0.08;42.10;;;;;9.30;1.40;;;;;;2279902;61;1147;-87
2021/10/01 03:11:45;747638.00;2.49;1289.95;0.00;0.00;0.62;;;;;9.30;1.00;;;;;;2279942;61;1075;-87
2021/10/01 03:14:13;752955.00;2.51;1299.20;0.00;0.00;0.62;;;;;9.30;1.00;;;;;;2279708;61;1405;-87
2021/10/01 03:16:40;737027.00;2.46;1271.51;0.00;0.00;0.62;;;;;9.60;1.00;;;;;;2280034;61;1128;-87
2021/10/01 03:19:08;823930.00;2.75;1422.89;0.00;0.00;0.62;;;;;9.60;1.00;;;;;;2280042;61;1123;-87
2021/10/01 03:21:37;594632.00;1.98;1024.95;0.00;0.00;0.62;;;;;9.60;1.00;;;;;;2279781;61;1926;-87
2021/10/01 03:24:06;383867.00;1.28;662.07;0.00;0.00;0.62;;;;;9.60;1.00;;;;;;2279795;61;1284;-86
2021/10/01 03:26:35;485187.00;1.62;836.32;0.00;0.00;0.62;;;;;9.50;1.00;;;;;;2279797;61;1151;-87
2021/10/01 03:29:04;329583.00;1.10;568.77;0.00;0.00;0.62;;;;;9.40;1.00;;;;;;2280020;61;982;-87
2021/10/01 03:31:31;361714.00;1.21;623.99;0.00;0.00;0.62;;;;;9.30;1.00;;;;;;2279987;61;1124;-87
2021/10/01 03:33:58;379779.00;1.27;655.05;0.00;0.00;0.62;;;;;9.10;1.10;;;;;;2280235;60;1310;-87
2021/10/01 03:36:25;368758.00;1.23;636.10;0.00;0.00;0.62;;;;;9.00;2.10;;;;;;2280298;60;1172;-86
2021/10/01 03:38:55;410448.00;1.37;707.77;0.00;0.00;0.62;;;;;9.10;2.20;;;;;;2280222;61;1065;-87
2021/10/01 03:41:22;396074.00;1.32;683.06;0.00;0.00;0.62;;;;;9.20;1.00;;;;;;2280280;61;1985;-87
2021/10/01 03:43:51;395628.00;1.32;682.29;0.00;0.00;0.62;;;;;9.50;1.00;;;;;;2280236;60;1395;-87
2021/10/01 03:46:18;350504.00;1.17;604.73;0.00;0.00;0.62;;;;;9.60;1.00;;;;;;2280126;60;1042;-87
2021/10/01 03:48:45;382571.00;1.28;659.84;0.00;0.00;0.62;;;;;9.70;1.00;;;;;;2280070;61;1075;-87
2021/10/01 03:51:12;563064.00;1.88;970.48;0.00;0.00;0.62;;;;;9.60;1.00;;;;;;2279932;61;1076;-87
2021/10/01 03:53:40;1014439.00;3.38;1758.06;40364.00;0.13;70.52;;;;;9.70;1.00;;;;;;2279848;61;1335;-88
2021/10/01 03:56:16;701113.00;2.34;1209.17;0.00;0.00;0.62;;;;;9.60;1.00;;;;;;2279621;61;1036;-87
2021/10/01 03:58:44;553117.00;1.84;953.33;0.00;0.00;0.62;;;;;9.70;1.00;;;;;;2279552;61;1149;-87
2021/10/01 04:01:12;576698.00;1.92;994.00;0.00;0.00;0.62;;;;;9.60;1.00;;;;;;2279646;61;2008;-87
2021/10/01 04:03:40;543852.00;1.81;937.36;0.00;0.00;0.62;;;;;9.60;1.00;;;;;;2279778;61;1288;-88
2021/10/01 04:06:07;510273.00;1.70;879.51;0.00;0.00;0.62;;;;;9.50;1.00;;;;;;2279682;61;1089;-88
2021/10/01 04:08:34;335439.00;1.12;578.83;0.00;0.00;0.62;;;;;9.40;1.00;;;;;;2279873;61;1085;-87
2021/10/01 04:11:02;418161.00;1.39;721.03;0.00;0.00;0.62;;;;;9.60;1.00;;;;;;2279695;61;1208;-87
2021/10/01 04:13:29;545572.00;1.82;940.33;0.00;0.00;0.62;;;;;9.60;1.00;;;;;;2279302;61;1253;-87
2021/10/01 04:15:56;555079.00;1.85;956.72;0.00;0.00;0.62;;;;;9.50;1.00;;;;;;2279811;61;1047;-87
2021/10/01 04:18:24;499668.00;1.67;861.25;0.00;0.00;0.62;;;;;9.60;1.00;;;;;;2280292;60;1117;-87
2021/10/01 04:20:51;519887.00;1.73;896.07;23910.00;0.08;42.04;;;;;9.60;1.00;;;;;;2280154;60;1996;-87
2021/10/01 04:23:19;468303.00;1.56;807.27;0.00;0.00;0.62;;;;;9.60;1.00;;;;;;2280238;60;1406;-87
2021/10/01 04:25:46;337804.00;1.13;582.90;0.00;0.00;0.62;;;;;9.30;1.00;;;;;;2280273;60;1100;-87
2021/10/01 04:28:13;371420.00;1.24;640.68;0.00;0.00;0.62;;;;;9.30;1.00;;;;;;2280294;60;1034;-87
2021/10/01 04:30:44;450545.00;1.50;776.72;0.00;0.00;0.62;;;;;9.20;1.00;;;;;;2279989;61;1083;-87
2021/10/01 04:33:16;529233.00;1.76;912.17;0.00;0.00;0.62;;;;;9.00;1.60;;;;;;2280056;61;1368;-87
2021/10/01 04:35:45;823471.00;2.74;1422.09;36089.00;0.12;63.12;;;;;9.10;1.80;;;;;;2280073;61;1161;-87
2021/10/01 04:38:12;660582.00;2.20;1138.95;0.00;0.00;0.62;;;;;9.10;1.90;;;;;;2280294;60;1147;-87
2021/10/01 04:40:39;615298.00;2.05;1060.64;0.00;0.00;0.62;;;;;9.10;1.10;;;;;;2280181;60;1998;-87
2021/10/01 04:43:06;773826.00;2.58;1335.51;0.00;0.00;0.62;;;;;9.00;1.20;;;;;;2279828;60;1285;-85
2021/10/01 04:45:32;671148.00;2.24;1157.24;26559.00;0.09;46.63;;;;;9.10;1.40;;;;;;2280184;60;1046;-84
2021/10/01 04:47:59;615785.00;2.05;1061.48;0.00;0.00;0.62;;;;;9.30;1.00;;;;;;2279932;60;1121;-84
2021/10/01 04:50:26;852756.00;2.84;1473.29;0.00;0.00;0.62;;;;;10.20;6.90;;;;;;2279875;60;925;-85
2021/10/01 04:52:55;676383.00;2.25;1166.31;0.00;0.00;0.62;;;;;11.20;4.90;;;;;;2280099;60;1280;-85
2021/10/01 04:55:22;823901.00;2.75;1422.84;38610.00;0.13;67.48;;;;;11.40;1.40;;;;;;2280100;60;1083;-84
2021/10/01 04:57:50;805564.00;2.69;1390.83;0.00;0.00;0.62;;;;;11.70;1.00;;;;;;2280085;60;983;-84
2021/10/01 05:00:17;669120.00;2.23;1153.73;0.00;0.00;0.62;;;;;12.00;1.00;;;;;;2280040;60;1915;-84
2021/10/01 05:02:44;118012768.00;393.38;66576596.00;0.00;0.00;0.62;;;;;12.40;1.00;;;;;;2280016;60;1390;-85
2021/10/01 05:05:11;816895.00;2.72;1410.60;0.00;0.00;0.62;;;;;12.70;1.00;;;;;;2279999;60;1085;-85
2021/10/01 05:07:38;620024.00;2.07;1068.81;0.00;0.00;0.62;;;;;12.80;1.00;;;;;;2280059;60;1165;-85
2021/10/01 05:10:07;667571.00;2.23;1151.05;0.00;0.00;0.62;;;;;13.00;1.00;;;;;;2280288;60;944;-84
2021/10/01 05:12:34;609561.00;2.03;1050.73;0.00;0.00;0.62;;;;;13.00;1.00;;;;;;2280704;60;1391;-84
2021/10/01 05:15:01;659305.00;2.20;1136.74;0.00;0.00;0.62;;;;;13.20;1.00;;;;;;2280839;60;1146;-85
2021/10/01 05:17:28;667602.00;2.23;1151.10;0.00;0.00;0.62;;;;;13.90;1.70;;;;;;2280850;60;1129;-84
2021/10/01 05:19:54;508406.00;1.69;876.30;0.00;0.00;0.62;;;;;14.20;1.00;;;;;;2280779;60;1919;-84
2021/10/01 05:22:21;703288.00;2.34;1212.94;0.00;0.00;0.62;;;;;14.50;1.00;;;;;;2280763;60;1077;-87
2021/10/01 05:24:48;877108.00;2.92;1515.95;0.00;0.00;0.62;;;;;15.00;1.00;;;;;;2280713;60;1347;-85
2021/10/01 05:27:16;676867.00;2.26;1167.15;46341.00;0.15;80.86;;;;;15.40;1.00;;;;;;2280764;60;1026;-86
2021/10/01 05:29:44;546975.00;1.82;942.74;0.00;0.00;0.62;;;;;15.60;1.00;;;;;;2280587;60;1254;-86
2021/10/01 05:32:11;546515.00;1.82;941.95;0.00;0.00;0.62;;;;;15.80;1.00;;;;;;2280755;60;1125;-87
2021/10/01 05:34:38;673906.00;2.25;1162.02;0.00;0.00;0.62;;;;;15.60;1.00;;;;;;2280796;60;1379;-85
2021/10/01 05:37:06;557332.00;1.86;960.60;0.00;0.00;0.62;;;;;15.60;1.00;;;;;;2280722;60;1149;-88
2021/10/01 05:39:33;823495.00;2.74;1422.13;51546.00;0.17;89.86;;;;;15.50;1.00;;;;;;2280635;60;987;-87
2021/10/01 05:42:00;547148.00;1.82;943.04;0.00;0.00;0.62;;;;;15.20;1.00;;;;;;2280559;60;2032;-88
2021/10/01 05:44:28;540904.00;1.80;932.28;0.00;0.00;0.62;;;;;15.30;1.00;;;;;;2280650;60;1303;-84
2021/10/01 05:46:57;617228.00;2.06;1063.98;0.00;0.00;0.62;;;;;15.40;1.00;;;;;;2280624;60;1110;-87
2021/10/01 05:49:27;642955.00;2.14;1108.45;0.00;0.00;0.62;;;;;15.30;1.00;;;;;;2280650;60;1003;-85
2021/10/01 05:52:01;767006.00;2.56;1323.64;0.00;0.00;0.62;;;;;13.80;1.00;;;;;;2280528;60;1138;-85
2021/10/01 05:54:28;530697.00;1.77;914.69;0.00;0.00;0.62;;;;;13.50;1.00;;;;;;2280549;60;1320;-85
2021/10/01 05:56:56;696866.00;2.32;1201.80;0.00;0.00;0.62;;;;;14.30;1.00;;;;;;2280516;60;1059;-85
2021/10/01 05:59:24;699284.00;2.33;1206.00;38827.00;0.13;67.86;;;;;14.70;1.00;;;;;;2280541;60;1074;-86
2021/10/01 06:01:52;542568.00;1.81;935.15;0.00;0.00;0.62;;;;;15.00;1.00;;;;;;2280533;60;1998;-85
2021/10/01 06:04:19;489792.00;1.63;844.25;0.00;0.00;0.62;;;;;15.40;1.00;;;;;;2280462;60;1289;-86
2021/10/01 06:06:46;529727.00;1.77;913.02;0.00;0.00;0.62;;;;;15.70;1.00;;;;;;2280467;60;1003;-85
2021/10/01 06:09:15;890285.00;2.97;1539.06;0.00;0.00;0.62;;;;;15.50;1.00;;;;;;2280537;60;1106;-85
2021/10/01 06:11:42;727953.00;2.43;1255.75;0.00;0.00;0.62;;;;;15.30;1.00;;;;;;2280470;60;1127;-86
2021/10/01 06:14:10;577697.00;1.93;995.73;0.00;0.00;0.62;;;;;14.60;1.00;;;;;;2280491;60;1383;-87
2021/10/01 06:16:37;847778.00;2.83;1464.58;0.00;0.00;0.62;;;;;14.20;1.00;;;;;;2280512;61;1121;-84
2021/10/01 06:19:06;677013.00;2.26;1167.40;0.00;0.00;0.62;;;;;14.50;1.00;;;;;;2280552;60;1108;-86
2021/10/01 06:21:32;661618.00;2.21;1140.74;0.00;0.00;0.62;;;;;15.50;1.00;;;;;;2280402;60;1919;-84
2021/10/01 06:23:59;658306.00;2.19;1135.01;0.00;0.00;0.62;;;;;16.10;1.00;;;;;;2280298;60;1312;-84
2021/10/01 06:26:26;636955.00;2.12;1098.07;0.00;0.00;0.62;;;;;16.40;1.00;;;;;;2280338;60;1061;-87
2021/10/01 06:28:53;522277.00;1.74;900.19;0.00;0.00;0.62;;;;;16.90;1.00;;;;;;2280324;60;1171;-85
2021/10/01 06:31:20;455711.00;1.52;785.61;0.00;0.00;0.62;;;;;16.90;1.00;;;;;;2280465;60;1290;-85
2021/10/01 06:33:48;411577.00;1.37;709.71;0.00;0.00;0.62;;;;;17.20;1.00;;;;;;2280420;60;1277;-86
2021/10/01 06:36:19;479077.00;1.60;825.81;0.00;0.00;0.62;;;;;18.10;1.00;;;;;;2280466;60;1087;-87
2021/10/01 06:38:46;543317.00;1.81;936.44;0.00;0.00;0.62;;;;;18.30;1.00;;;;;;2279366;60;1005;-86
2021/10/01 06:41:14;303027.00;1.01;523.12;0.00;0.00;0.62;;;;;18.80;1.00;;;;;;2280303;60;2002;-85
2021/10/01 06:43:43;117606056.00;392.02;65890016.00;0.00;0.00;0.62;;;;;18.80;1.00;;;;;;2279719;60;1344;-86
2021/10/01 06:46:17;389379.00;1.30;671.55;0.00;0.00;0.62;;;;;18.90;1.00;;;;;;2280385;60;1039;-86
2021/10/01 06:48:52;215680.00;0.72;372.91;0.00;0.00;0.62;;;;;18.50;1.00;;;;;;2280575;60;1137;-85
2021/10/01 06:51:46;310824.00;1.04;536.53;0.00;0.00;0.62;;;;;18.70;1.00;;;;;;2280620;60;1082;-85
2021/10/01 08:19:29;181969.00;0.61;314.88;0.00;0.00;0.62;;;;;18.90;1.00;;;;;;2266063;61;1123;-86
2021/10/01 08:21:58;97836.00;0.33;169.84;0.00;0.00;0.62;;;;;19.60;1.00;;;;;;2259328;61;1924;-86
2021/10/01 08:24:27;231940.00;0.77;400.89;0.00;0.00;0.62;;;;;19.70;1.00;;;;;;2266265;61;1397;-86
2021/10/01 08:26:55;154636.00;0.52;267.80;0.00;0.00;0.62;;;;;20.00;1.00;;;;;;2266138;61;1082;-86
2021/10/01 08:29:23;146210.00;0.49;253.28;0.00;0.00;0.62;;;;;20.00;1.00;;;;;;2265970;61;1082;-86
2021/10/01 08:31:50;305192.00;1.02;526.84;0.00;0.00;0.62;;;;;19.90;1.00;;;;;;2274527;61;1165;-86
2021/10/01 08:34:20;152623.00;0.51;264.33;0.00;0.00;0.62;;;;;19.70;1.00;;;;;;2278950;61;1323;-86
2021/10/01 08:36:47;260007.00;0.87;449.16;19302.00;0.06;34.06;;;;;19.60;1.00;;;;;;2278560;61;1175;-86
2021/10/01 08:39:14;226888.00;0.76;392.19;0.00;0.00;0.62;;;;;19.50;1.00;;;;;;2279052;61;1132;-86
2021/10/01 08:41:43;239433.00;0.80;413.78;0.00;0.00;0.62;;;;;19.60;1.00;;;;;;2279010;61;2010;-86
2021/10/01 08:44:10;320865.00;1.07;553.78;0.00;0.00;0.62;;;;;19.90;1.00;;;;;;2279190;61;1391;-86
2021/10/01 08:46:40;297854.00;0.99;514.23;0.00;0.00;0.62;;;;;19.30;1.00;;;;;;2279192;61;990;-86
2021/10/01 08:49:09;298682.00;1.00;515.65;21208.00;0.07;37.36;;;;;18.60;1.00;;;;;;2279572;61;1130;-85
2021/10/01 08:51:37;334907.00;1.12;577.92;0.00;0.00;0.62;;;;;18.50;1.00;;;;;;2279466;61;1186;-86
2021/10/01 08:54:05;303651.00;1.01;524.20;0.00;0.00;0.62;;;;;18.70;1.00;;;;;;2278423;61;1372;-86
2021/10/01 08:56:33;214005.00;0.71;370.03;0.00;0.00;0.62;;;;;18.80;1.00;;;;;;2274876;61;1165;-86
2021/10/01 08:59:00;317915.00;1.06;548.71;0.00;0.00;0.62;;;;;18.70;1.00;;;;;;2278653;61;1183;-86
2021/10/01 09:01:27;309530.00;1.03;534.30;11211.00;0.04;20.05;;;;;18.60;1.00;;;;;;2275059;61;2008;-86
2021/10/01 09:03:55;263133.00;0.88;454.54;0.00;0.00;0.62;;;;;19.10;1.00;;;;;;2278532;61;1425;-86
2021/10/01 09:06:22;357885.00;1.19;617.41;0.00;0.00;0.62;;;;;19.30;1.00;;;;;;2279176;61;1128;-85
2021/10/01 09:08:52;158743.00;0.53;274.87;0.00;0.00;0.62;;;;;19.70;1.00;;;;;;2279008;61;1191;-85
2021/10/01 09:11:25;331418.00;1.10;571.92;0.00;0.00;0.62;;;;;19.80;1.00;;;;;;2278837;61;975;-86
2021/10/01 09:13:52;244825.00;0.82;423.05;0.00;0.00;0.62;;;;;19.60;1.00;;;;;;2278880;61;1447;-87
2021/10/01 09:16:21;389114.00;1.30;671.09;0.00;0.00;0.62;;;;;19.90;1.00;;;;;;2278776;61;1067;-86
2021/10/01 09:18:49;230421.00;0.77;398.27;0.00;0.00;0.62;;;;;20.00;1.00;;;;;;2278774;61;1155;-86
2021/10/01 09:21:20;316143.00;1.05;545.67;0.00;0.00;0.62;;;;;20.20;1.00;;;;;;2278979;61;1921;-86
2021/10/01 09:24:00;349850.00;1.17;603.60;0.00;0.00;0.62;;;;;20.10;1.00;;;;;;2278731;61;1375;-86
2021/10/01 09:26:29;151666.00;0.51;262.68;0.00;0.00;0.62;;;;;19.90;1.00;;;;;;2278516;61;1202;-86
2021/10/01 09:28:58;419234.00;1.40;722.87;0.00;0.00;0.62;;;;;20.20;1.00;;;;;;2278786;61;1111;-86
2021/10/01 09:31:43;638280.00;2.13;1100.36;13853.00;0.05;24.62;;;;;20.40;1.00;;;;;;2278884;61;1325;-87
2021/10/01 09:34:12;332248.00;1.11;573.35;0.00;0.00;0.62;;;;;20.40;1.00;;;;;;2278907;61;1326;-86
2021/10/01 09:36:41;285196.00;0.95;492.47;26346.00;0.09;46.26;;;;;20.60;1.00;;;;;;2278918;61;1197;-86
2021/10/01 09:39:09;239825.00;0.80;414.45;0.00;0.00;0.62;;;;;20.70;1.00;;;;;;2279272;61;1193;-86
2021/10/01 09:41:37;279611.00;0.93;482.87;0.00;0.00;0.62;;;;;20.60;1.00;;;;;;2279180;61;2008;-86
2021/10/01 09:44:10;345219.00;1.15;595.64;0.00;0.00;0.62;;;;;20.50;1.00;;;;;;2279404;61;1388;-86
2021/10/01 09:46:40;218128.00;0.73;377.12;0.00;0.00;0.62;;;;;20.70;1.00;;;;;;2279614;61;1080;-87
2021/10/01 09:49:09;392949.00;1.31;677.68;0.00;0.00;0.62;;;;;21.10;1.00;;;;;;2279550;61;1151;-87
2021/10/01 09:51:38;353617.00;1.18;610.08;0.00;0.00;0.62;;;;;21.10;1.00;;;;;;2279543;61;1160;-86
2021/10/01 09:54:12;258355.00;0.86;446.32;0.00;0.00;0.62;;;;;20.90;1.00;;;;;;2279470;61;1384;-86
2021/10/01 09:56:41;426180.00;1.42;734.82;17906.00;0.06;31.64;;;;;20.70;1.00;;;;;;2279577;61;1699;-86
2021/10/01 09:59:11;239645.00;0.80;414.14;0.00;0.00;0.62;;;;;20.60;1.00;;;;;;2280636;60;1054;-85
2021/10/01 10:02:04;253056.00;0.84;437.21;0.00;0.00;0.62;;;;;20.80;1.00;;;;;;2279607;60;2002;-86
2021/10/01 10:04:34;293028.00;0.98;505.93;8100.00;0.03;14.66;;;;;20.90;1.00;;;;;;2279207;61;1414;-87
2021/10/01 10:07:16;350032.00;1.17;603.92;107756.00;0.36;186.96;;;;;20.80;1.00;;;;;;2279879;61;1117;-86
2021/10/01 10:09:48;199768.00;0.67;345.52;0.00;0.00;0.62;;;;;21.00;1.00;;;;;;2280505;60;1117;-85
2021/10/01 10:12:18;216600.00;0.72;374.49;0.00;0.00;0.62;;;;;21.10;1.00;;;;;;2280659;61;1121;-86
2021/10/01 10:14:49;189067.00;0.63;327.10;0.00;0.00;0.62;;;;;21.40;1.00;;;;;;2280479;61;1187;-84
2021/10/01 10:17:18;592777.00;1.98;1021.75;99000.00;0.33;171.85;;;;;21.50;1.00;;;;;;2280486;60;1184;-86
2021/10/01 10:19:45;260480.00;0.87;449.97;0.00;0.00;0.62;;;;;21.40;1.00;;;;;;2279879;61;1671;-86
2021/10/01 10:22:13;100852.00;0.34;175.04;0.00;0.00;0.62;;;;;21.30;1.00;;;;;;2279390;61;1939;-86
2021/10/01 10:24:40;168323.00;0.56;291.38;0.00;0.00;0.62;;;;;21.40;1.00;;;;;;2279565;61;1502;-86
2021/10/01 10:27:09;157033.00;0.52;271.93;0.00;0.00;0.62;;;;;21.50;1.00;;;;;;2278894;61;1149;-86
2021/10/01 10:29:39;409731.00;1.37;706.53;31826.00;0.11;55.74;;;;;21.40;1.00;;;;;;2279765;61;1128;-87
2021/10/01 10:32:09;183731.00;0.61;317.91;0.00;0.00;0.62;;;;;21.30;1.00;;;;;;2279169;61;1129;-86
2021/10/01 10:34:36;474864.00;1.58;818.56;75417.00;0.25;131.12;;;;;21.30;1.00;;;;;;2278667;61;1404;-86
2021/10/01 10:37:08;259712.00;0.87;448.65;0.00;0.00;0.62;;;;;21.30;1.00;;;;;;2280081;61;1068;-85
2021/10/01 10:39:48;374271.00;1.25;645.58;43400.00;0.14;75.77;;;;;21.50;1.00;;;;;;2279539;61;1077;-86
2021/10/01 10:42:33;168115.00;0.56;291.02;0.00;0.00;0.62;;;;;21.40;1.00;;;;;;2278837;61;1915;-86
2021/10/01 10:45:21;163971.00;0.55;283.88;0.00;0.00;0.62;;;;;21.30;1.00;;;;;;2279541;61;1176;-86
2021/10/01 10:48:00;138542400.00;461.81;107766800.00;0.00;0.00;0.62;;;;;21.40;1.00;;;;;;2279361;61;1589;-86
2021/10/01 10:50:51;188260.00;0.63;325.71;0.00;0.00;0.62;;;;;21.50;1.00;;;;;;2278733;61;1120;-86
2021/10/01 10:53:25;147710.00;0.49;255.86;0.00;0.00;0.62;;;;;21.80;1.00;;;;;;2279321;61;1384;-86
2021/10/01 10:56:02;178178.00;0.59;308.35;0.00;0.00;0.62;;;;;22.10;1.00;;;;;;2278938;61;1575;-86
2021/10/01 10:58:46;175322.00;0.58;303.43;0.00;0.00;0.62;;;;;22.40;1.00;;;;;;2278669;61;1040;-86
2021/10/01 11:01:36;233307.00;0.78;403.24;0.00;0.00;0.62;;;;;22.50;1.00;;;;;;2279942;61;1129;-86
2021/10/01 11:04:39;373727.00;1.25;644.64;83439.00;0.28;144.98;;;;;22.60;1.00;;;;;;2280488;60;1396;-86
2021/10/01 11:07:08;441928.00;1.47;761.90;0.00;0.00;0.62;;;;;22.50;1.00;;;;;;2279254;61;1117;-86
2021/10/01 11:09:36;370129.00;1.23;638.46;72779.00;0.24;126.56;;;;;22.50;1.00;;;;;;2278591;61;1149;-86
2021/10/01 11:12:19;273981.00;0.91;473.19;79478.00;0.26;138.14;;;;;22.70;1.00;;;;;;2279153;61;1179;-87
2021/10/01 11:14:50;263151.00;0.88;454.57;76016.00;0.25;132.15;;;;;23.10;1.00;;;;;;2278980;61;1445;-87
2021/10/01 11:17:20;347453.00;1.16;599.48;76462.00;0.25;132.93;;;;;22.90;1.00;;;;;;2279257;61;1210;-84
2021/10/01 11:19:50;17165.00;0.06;30.36;0.00;0.00;0.62;;;;;23.10;1.00;;;;;;2278382;61;1104;-87
2021/10/01 11:22:32;231537.00;0.77;400.19;0.00;0.00;0.62;;;;;23.20;1.00;;;;;;2278443;61;1990;-87
2021/10/01 11:25:05;153572.00;0.51;265.96;0.00;0.00;0.62;;;;;23.10;1.00;;;;;;2278769;61;1118;-86
2021/10/01 11:27:32;155466.00;0.52;269.23;0.00;0.00;0.62;;;;;23.20;1.00;;;;;;2278893;61;1105;-87
2021/10/01 11:30:00;204442.00;0.68;353.57;0.00;0.00;0.62;;;;;23.40;1.00;;;;;;2278278;61;1090;-86